Time;durP1;ratioP1;P1;durP2;ratioP2;P2;SDS_P1;SDS_P2;PMS_P1;PMS_P2;Temp;Humidity;BMP_temperature;BMP_pressure;BME280_temperature;BME280_humidity;BME280_pressure;Samples;Min_cycle;Max_cycle;Signal;HPM_P1;HPM_P2
2022/12/17 13:06:52;;;;;;;56.40;40.97;;;1.80;88.10;;;;;;5002140;28;20446;-86
2022/12/17 13:09:19;;;;;;;61.10;41.55;;;1.80;88.80;;;;;;4986636;28;20974;-86
2022/12/17 13:11:52;;;;;;;54.20;37.83;;;1.90;88.70;;;;;;4986029;28;20412;-86
2022/12/17 13:14:30;;;;;;;55.97;39.08;;;1.90;88.70;;;;;;5002666;28;20950;-86
2022/12/17 13:17:04;;;;;;;55.03;39.13;;;1.90;88.60;;;;;;5002834;28;20413;-86
2022/12/17 13:19:30;;;;;;;59.10;40.55;;;1.90;88.40;;;;;;4985793;28;20417;-86
2022/12/17 13:21:56;;;;;;;56.35;40.88;;;1.80;88.90;;;;;;5003119;28;20420;-86
2022/12/17 13:24:26;;;;;;;60.78;41.92;;;1.70;88.90;;;;;;5002426;28;20447;-85
2022/12/17 13:26:52;;;;;;;58.45;40.60;;;1.70;89.70;;;;;;5002964;28;20764;-86
2022/12/17 13:29:28;;;;;;;61.00;40.92;;;1.70;89.20;;;;;;5002178;28;20409;-87
2022/12/17 13:32:01;;;;;;;55.83;39.63;;;1.60;89.20;;;;;;5002790;28;20763;-86
2022/12/17 13:34:34;;;;;;;59.05;40.05;;;1.60;89.50;;;;;;5002746;28;20447;-86
2022/12/17 13:37:29;;;;;;;58.67;41.20;;;1.60;89.70;;;;;;5001790;28;20792;-86
2022/12/17 13:40:10;;;;;;;62.38;41.85;;;1.60;90.00;;;;;;5002947;28;21017;-86
2022/12/17 13:42:36;;;;;;;60.22;42.03;;;1.50;90.10;;;;;;5002123;28;20409;-86
2022/12/17 13:45:02;;;;;;;60.78;42.28;;;1.50;90.10;;;;;;5002051;28;20471;-85
2022/12/17 13:47:31;;;;;;;61.47;42.08;;;1.40;90.20;;;;;;5002517;28;20779;-85
2022/12/17 13:49:59;;;;;;;62.85;42.83;;;1.40;90.30;;;;;;4985567;28;20443;-87
2022/12/17 13:52:26;;;;;;;60.22;41.13;;;1.40;90.30;;;;;;5002786;28;20955;-86
2022/12/17 13:54:52;;;;;;;62.17;41.50;;;1.40;90.40;;;;;;5005111;28;20405;-86
2022/12/17 13:57:24;;;;;;;64.50;42.70;;;1.40;90.50;;;;;;5006426;28;20423;-87
2022/12/17 13:59:58;;;;;;;62.80;42.03;;;1.40;90.50;;;;;;5005779;28;20409;-86
2022/12/17 14:02:25;;;;;;;63.90;43.40;;;1.30;90.50;;;;;;5006335;28;20887;-87
2022/12/17 14:04:52;;;;;;;64.05;44.42;;;1.30;90.60;;;;;;5006255;28;20547;-86
2022/12/17 14:07:19;;;;;;;65.00;43.13;;;1.30;90.60;;;;;;5005613;28;20401;-86
2022/12/17 14:09:45;;;;;;;69.05;45.97;;;1.30;90.70;;;;;;4990549;28;20780;-86
2022/12/17 14:12:22;;;;;;;63.40;42.85;;;1.20;90.60;;;;;;5005702;28;20974;-85
2022/12/17 14:14:57;;;;;;;67.60;45.57;;;1.20;90.60;;;;;;4989581;28;20478;-86
2022/12/17 14:17:28;;;;;;;66.05;44.78;;;1.10;90.70;;;;;;5005832;28;20415;-87
2022/12/17 14:19:57;;;;;;;69.03;45.70;;;1.10;90.80;;;;;;5005389;28;20449;-85
2022/12/17 14:22:44;;;;;;;69.63;46.92;;;1.10;90.80;;;;;;4990132;28;20899;-85
2022/12/17 14:25:16;;;;;;;75.25;48.63;;;1.00;91.00;;;;;;5005256;28;20904;-85
2022/12/17 14:27:59;;;;;;;73.68;48.35;;;1.00;91.20;;;;;;5005927;28;20492;-86
2022/12/17 14:30:38;;;;;;;73.47;47.38;;;0.90;91.10;;;;;;5005600;28;20401;-86
2022/12/17 14:33:24;;;;;;;77.75;50.25;;;0.90;91.30;;;;;;4988929;28;20673;-85
2022/12/17 14:35:53;;;;;;;76.97;49.28;;;0.80;91.40;;;;;;4989823;28;20741;-86
2022/12/17 14:38:19;;;;;;;76.15;49.85;;;0.80;91.40;;;;;;4988697;28;20476;-86
2022/12/17 14:40:44;;;;;;;77.47;50.28;;;0.80;91.50;;;;;;4989211;28;20496;-87
2022/12/17 14:43:13;;;;;;;77.57;49.80;;;0.70;91.60;;;;;;5005161;28;20432;-85
2022/12/17 14:46:19;;;;;;;83.20;52.40;;;0.70;91.60;;;;;;4989240;28;20404;-87
2022/12/17 14:51:30;;;;;;;85.75;53.13;;;0.50;91.80;;;;;;5005317;28;21322;-86
2022/12/17 14:54:31;;;;;;;83.00;52.97;;;0.50;91.90;;;;;;4988668;28;20459;-86
2022/12/17 14:56:58;;;;;;;85.88;53.83;;;0.40;92.00;;;;;;5005896;28;20413;-86
2022/12/17 14:59:44;;;;;;;88.50;54.30;;;0.40;92.00;;;;;;5004986;28;21212;-85
2022/12/17 15:02:19;;;;;;;92.22;55.97;;;0.30;92.10;;;;;;5005134;28;20895;-86
2022/12/17 15:04:45;;;;;;;90.53;54.40;;;0.30;92.20;;;;;;5004592;28;20421;-85
2022/12/17 15:07:14;;;;;;;86.97;53.92;;;0.30;92.20;;;;;;5004389;28;20791;-85
2022/12/17 15:09:40;;;;;;;93.28;57.17;;;0.20;92.20;;;;;;5005281;28;20408;-86
2022/12/17 15:12:06;;;;;;;87.47;54.67;;;0.20;92.30;;;;;;5004348;28;20409;-85
2022/12/17 15:14:32;;;;;;;91.43;55.72;;;0.20;92.40;;;;;;5005360;28;20416;-86
2022/12/17 15:16:58;;;;;;;87.75;53.35;;;0.10;92.40;;;;;;5004220;28;20417;-86
2022/12/17 15:19:24;;;;;;;95.80;56.65;;;0.10;92.40;;;;;;4988635;28;20413;-86
2022/12/17 15:21:50;;;;;;;96.40;58.30;;;0.00;92.50;;;;;;5004314;28;20405;-85
2022/12/17 15:24:18;;;;;;;92.78;54.95;;;0.00;92.60;;;;;;5004598;28;20492;-88
2022/12/17 15:26:45;;;;;;;95.65;56.65;;;0.00;92.60;;;;;;5004753;28;20412;-86
2022/12/17 15:29:11;;;;;;;97.50;56.38;;;0.00;92.60;;;;;;4988197;28;20431;-86
2022/12/17 15:31:36;;;;;;;96.50;57.42;;;-0.10;92.70;;;;;;5005175;28;20420;-85
2022/12/17 15:34:02;;;;;;;96.23;56.77;;;-0.10;92.70;;;;;;4987429;28;20448;-86
2022/12/17 15:36:30;;;;;;;98.87;56.90;;;0.20;92.80;;;;;;5004813;28;20466;-86
2022/12/17 15:38:56;;;;;;;96.10;57.50;;;-0.20;92.80;;;;;;5003995;28;20413;-85
2022/12/17 15:44:06;;;;;;;97.30;57.43;;;-0.30;93.00;;;;;;5004481;28;20417;-86
2022/12/17 15:46:31;;;;;;;99.67;57.57;;;-0.30;93.00;;;;;;5003728;28;20432;-85
2022/12/17 15:48:57;;;;;;;100.75;58.70;;;-0.30;93.10;;;;;;5004566;28;20508;-85
2022/12/17 15:51:22;;;;;;;100.70;58.20;;;-0.30;93.10;;;;;;5003700;28;20409;-86
2022/12/17 15:53:50;;;;;;;101.17;57.90;;;-0.40;93.20;;;;;;4988279;28;20848;-85
2022/12/17 15:56:24;;;;;;;100.55;57.85;;;-0.40;93.10;;;;;;5003596;28;20496;-85
2022/12/17 15:58:49;;;;;;;100.15;57.35;;;-0.40;93.10;;;;;;5003894;28;20459;-86
2022/12/17 16:01:16;;;;;;;100.93;57.70;;;-0.40;93.20;;;;;;5003774;28;20441;-86
2022/12/17 16:03:41;;;;;;;100.00;56.67;;;-0.50;93.30;;;;;;4987434;28;20401;-86
2022/12/17 16:06:07;;;;;;;102.05;57.70;;;-0.50;93.30;;;;;;5004364;28;20981;-86
2022/12/17 16:08:33;;;;;;;102.00;56.92;;;-0.50;93.30;;;;;;5003871;28;20791;-87
2022/12/17 16:10:58;;;;;;;102.18;57.67;;;-0.50;93.30;;;;;;4988177;28;20421;-86
2022/12/17 16:13:24;;;;;;;107.30;57.80;;;-0.60;93.40;;;;;;5003669;28;20439;-85
2022/12/17 16:15:57;;;;;;;105.53;59.90;;;-0.60;93.40;;;;;;4987814;28;20415;-85
2022/12/17 16:18:22;;;;;;;104.65;59.13;;;-0.60;93.40;;;;;;5003368;28;20413;-85
2022/12/17 16:20:49;;;;;;;101.00;55.90;;;-0.60;93.50;;;;;;5003416;28;20401;-86
2022/12/17 16:23:15;;;;;;;100.78;56.75;;;-0.70;93.40;;;;;;5003858;28;20416;-85
2022/12/17 16:25:41;;;;;;;100.45;55.05;;;-0.70;93.50;;;;;;4986916;28;20487;-85
2022/12/17 16:28:07;;;;;;;104.07;56.58;;;-0.70;93.50;;;;;;5003881;28;20511;-85
2022/12/17 16:30:33;;;;;;;94.88;53.67;;;-0.70;93.50;;;;;;5003189;28;20427;-85
2022/12/17 16:32:58;;;;;;;99.47;55.13;;;-0.70;93.60;;;;;;5003948;28;20432;-86
2022/12/17 16:35:25;;;;;;;98.32;55.58;;;-0.70;93.60;;;;;;5002862;28;20409;-86
2022/12/17 16:37:51;;;;;;;102.05;56.17;;;-0.80;93.60;;;;;;4987022;28;20888;-86
2022/12/17 16:40:16;;;;;;;101.07;55.77;;;-0.80;93.60;;;;;;4987114;28;20462;-84
2022/12/17 16:42:42;;;;;;;101.20;54.13;;;-0.80;93.60;;;;;;5002836;28;20772;-85
2022/12/17 16:45:08;;;;;;;101.97;55.10;;;-0.80;93.60;;;;;;5003543;28;20515;-85
2022/12/17 16:47:34;;;;;;;103.00;53.50;;;-0.80;93.70;;;;;;4986570;28;20415;-87
2022/12/17 16:49:59;;;;;;;99.87;54.40;;;-0.90;93.60;;;;;;5003504;28;20417;-85
2022/12/17 16:52:25;;;;;;;100.95;53.75;;;-0.90;93.70;;;;;;4986449;28;20575;-85
2022/12/17 16:54:51;;;;;;;102.13;54.63;;;-0.90;93.70;;;;;;5003386;28;20409;-85
2022/12/17 16:57:16;;;;;;;103.10;54.07;;;-1.00;93.60;;;;;;5002887;28;20416;-84
2022/12/17 16:59:42;;;;;;;98.65;52.65;;;-0.90;93.80;;;;;;5002747;28;20409;-85
2022/12/17 17:02:14;;;;;;;99.65;52.78;;;-1.00;93.70;;;;;;5002958;28;20424;-86
2022/12/17 17:04:40;;;;;;;104.68;54.30;;;-1.00;93.70;;;;;;5002761;28;20801;-85
2022/12/17 17:07:06;;;;;;;103.93;52.53;;;-1.00;93.80;;;;;;4987074;28;20471;-86
2022/12/17 17:09:32;;;;;;;102.40;52.23;;;-1.00;93.80;;;;;;5002773;28;20786;-84
2022/12/17 17:11:57;;;;;;;98.25;53.03;;;-1.10;93.80;;;;;;4986960;28;20451;-86
2022/12/17 17:14:24;;;;;;;103.80;53.22;;;-1.10;93.80;;;;;;5002357;28;20432;-85
2022/12/17 17:16:51;;;;;;;99.65;53.03;;;-1.10;93.70;;;;;;4986207;28;20409;-86
2022/12/17 17:19:17;;;;;;;99.60;53.00;;;-1.10;93.80;;;;;;5002798;28;20409;-86
2022/12/17 17:21:52;;;;;;;99.03;53.43;;;-1.20;93.70;;;;;;5002267;28;20427;-85
2022/12/17 17:24:24;;;;;;;99.37;52.77;;;-1.20;93.70;;;;;;5003283;28;20463;-86
2022/12/17 17:26:50;;;;;;;97.70;51.22;;;-1.20;93.80;;;;;;5002152;28;20483;-85
2022/12/17 17:29:16;;;;;;;100.05;52.42;;;-1.20;93.80;;;;;;4985538;28;20408;-86
2022/12/17 17:31:42;;;;;;;99.38;50.50;;;-1.20;93.80;;;;;;4985612;28;20487;-85
2022/12/17 17:34:09;;;;;;;99.05;50.83;;;-1.30;93.80;;;;;;4982059;28;20521;-84
2022/12/17 17:36:35;;;;;;;93.00;50.40;;;-1.30;93.80;;;;;;4981955;28;20414;-84
2022/12/17 17:39:02;;;;;;;100.80;51.57;;;-1.30;93.80;;;;;;5000607;28;20749;-86
2022/12/17 17:41:29;;;;;;;98.00;51.03;;;-1.20;93.90;;;;;;4985246;28;20412;-85
2022/12/17 17:44:10;;;;;;;97.47;51.35;;;-1.30;93.80;;;;;;4983411;28;20491;-86
2022/12/17 17:46:36;;;;;;;99.55;50.95;;;-1.40;93.80;;;;;;4984948;28;20409;-85
2022/12/17 17:49:04;;;;;;;101.90;52.28;;;-1.30;93.80;;;;;;4984315;28;20460;-84
2022/12/17 17:51:32;;;;;;;103.18;51.83;;;-1.40;93.90;;;;;;4984260;28;20405;-86
2022/12/17 17:53:59;;;;;;;105.38;53.05;;;-1.40;93.90;;;;;;5002208;28;20437;-86
2022/12/17 17:56:27;;;;;;;108.75;54.40;;;-1.40;93.90;;;;;;5001570;28;20510;-87
2022/12/17 17:58:57;;;;;;;103.13;52.03;;;-1.50;93.90;;;;;;5001966;28;20396;-85
2022/12/17 18:01:30;;;;;;;104.03;50.85;;;-1.50;93.90;;;;;;5002178;28;20413;-86
2022/12/17 18:03:58;;;;;;;105.03;51.72;;;-1.50;93.90;;;;;;5002268;28;21109;-86
2022/12/17 18:06:25;;;;;;;103.40;51.08;;;-1.40;94.00;;;;;;5002047;28;21105;-86
2022/12/17 18:08:51;;;;;;;104.80;51.67;;;-1.50;94.00;;;;;;5002193;28;20992;-86
2022/12/17 18:11:19;;;;;;;108.50;52.38;;;-1.50;94.00;;;;;;4985711;28;20409;-86
2022/12/17 18:13:54;;;;;;;109.70;52.00;;;-1.60;93.90;;;;;;4989719;28;20907;-86
2022/12/17 18:16:26;;;;;;;111.63;53.93;;;-1.60;94.00;;;;;;4976332;28;20531;-86
2022/12/17 18:18:56;;;;;;;110.75;53.03;;;-1.60;94.00;;;;;;4992330;28;20471;-86
2022/12/17 18:21:26;;;;;;;108.60;52.53;;;-1.60;94.10;;;;;;4989506;28;20410;-87
2022/12/17 18:23:59;;;;;;;109.40;52.47;;;-1.60;94.10;;;;;;4989258;28;20580;-85
2022/12/17 18:26:26;;;;;;;112.15;53.13;;;-1.60;94.10;;;;;;4987606;28;20494;-86
2022/12/17 18:28:52;;;;;;;106.50;50.85;;;-1.70;94.10;;;;;;4982567;28;20472;-87
2022/12/17 18:31:24;;;;;;;108.70;53.33;;;-1.70;94.10;;;;;;4985058;28;20429;-85
2022/12/17 18:33:56;;;;;;;115.13;53.88;;;-1.70;94.10;;;;;;5018822;28;20459;-86
2022/12/17 18:36:25;;;;;;;112.30;53.08;;;-1.70;94.10;;;;;;5001390;28;20775;-86
2022/12/17 18:38:56;;;;;;;109.18;52.78;;;-1.70;94.20;;;;;;5018235;28;20401;-86
2022/12/17 18:44:06;;;;;;;116.03;53.30;;;-1.80;94.40;;;;;;5004951;28;20448;-85
2022/12/17 18:46:32;;;;;;;113.03;52.58;;;-1.80;94.20;;;;;;5022280;28;20456;-85
2022/12/17 18:49:01;;;;;;;112.85;51.45;;;-1.80;94.20;;;;;;5021165;28;20416;-86
2022/12/17 18:51:27;;;;;;;107.28;52.60;;;-1.80;94.20;;;;;;5005619;28;20401;-86
2022/12/17 18:54:00;;;;;;;110.40;52.95;;;-1.90;94.10;;;;;;5004564;28;20479;-85
2022/12/17 18:56:27;;;;;;;109.80;51.58;;;-1.90;94.10;;;;;;5005267;28;20451;-85
2022/12/17 18:58:54;;;;;;;113.03;52.83;;;-1.90;94.20;;;;;;5005388;28;20436;-86
2022/12/17 19:01:23;;;;;;;112.55;53.05;;;-1.90;94.20;;;;;;5004518;28;20919;-84
2022/12/17 19:03:49;;;;;;;111.60;51.60;;;-1.90;94.30;;;;;;4988588;28;20496;-86
2022/12/17 19:06:15;;;;;;;110.82;51.88;;;-1.90;94.20;;;;;;5004434;28;20551;-86
2022/12/17 19:08:41;;;;;;;108.97;51.17;;;-2.00;94.20;;;;;;4988966;28;20409;-86
2022/12/17 19:11:08;;;;;;;114.83;51.90;;;-2.00;94.20;;;;;;5004323;28;20428;-86
2022/12/17 19:13:34;;;;;;;110.87;51.57;;;-2.00;94.30;;;;;;5004490;28;20448;-86
2022/12/17 19:16:04;;;;;;;111.90;51.85;;;-2.00;94.20;;;;;;4988179;28;20417;-85
2022/12/17 19:18:30;;;;;;;116.35;52.47;;;-2.00;94.20;;;;;;5003588;28;20448;-85
2022/12/17 19:20:57;;;;;;;116.40;53.70;;;-2.00;94.30;;;;;;4982619;28;20446;-85
2022/12/17 19:23:22;;;;;;;115.95;51.65;;;-2.10;94.30;;;;;;5028294;28;20401;-85
2022/12/17 19:25:48;;;;;;;117.75;51.88;;;-2.10;94.30;;;;;;5028042;28;21128;-86
2022/12/17 19:28:13;;;;;;;116.73;52.40;;;-2.00;94.30;;;;;;4993769;28;20417;-85
2022/12/17 19:30:39;;;;;;;115.33;52.30;;;-2.20;94.30;;;;;;5028624;28;20471;-87
2022/12/17 19:33:05;;;;;;;115.13;50.83;;;-2.20;94.40;;;;;;4994452;28;20472;-85
2022/12/17 19:35:30;;;;;;;115.23;51.20;;;-2.20;94.40;;;;;;4977897;28;20415;-86
2022/12/17 19:37:56;;;;;;;119.97;53.40;;;-2.20;94.40;;;;;;5026785;28;20428;-86
2022/12/17 19:40:21;;;;;;;123.40;53.10;;;-2.20;94.50;;;;;;4994513;28;21377;-86
2022/12/17 19:42:47;;;;;;;120.63;52.75;;;-2.20;94.50;;;;;;4993570;28;20410;-85
2022/12/17 19:45:13;;;;;;;123.50;52.53;;;-2.30;94.60;;;;;;5026495;28;20413;-84
2022/12/17 19:47:38;;;;;;;118.37;51.03;;;-2.20;94.60;;;;;;4978318;28;20417;-86
2022/12/17 19:50:04;;;;;;;123.80;52.42;;;-2.30;94.60;;;;;;4992433;28;20448;-85
2022/12/17 19:52:30;;;;;;;121.07;51.60;;;-2.30;94.60;;;;;;5026349;28;20408;-85
2022/12/17 19:54:56;;;;;;;121.68;51.97;;;-2.30;94.60;;;;;;4978168;28;20485;-86
2022/12/17 19:57:22;;;;;;;118.13;50.77;;;-2.30;94.60;;;;;;4993432;28;20407;-86
2022/12/17 19:59:48;;;;;;;117.83;50.70;;;-2.30;94.70;;;;;;5027396;28;20511;-86
2022/12/17 20:02:15;;;;;;;122.77;53.13;;;-2.30;94.70;;;;;;4991989;28;20421;-84
2022/12/17 20:04:41;;;;;;;117.38;51.85;;;-2.20;94.70;;;;;;5024456;28;20422;-85
2022/12/17 20:07:07;;;;;;;121.10;51.90;;;-2.40;94.70;;;;;;5024927;28;20441;-85
2022/12/17 20:09:32;;;;;;;122.97;52.67;;;-2.30;94.70;;;;;;4977352;28;20417;-85
2022/12/17 20:11:59;;;;;;;120.77;53.23;;;-2.40;94.70;;;;;;4977027;28;20947;-85
2022/12/17 20:14:26;;;;;;;126.47;52.95;;;-2.40;94.70;;;;;;4974801;28;20470;-85
2022/12/17 20:16:56;;;;;;;128.30;53.00;;;-2.30;94.80;;;;;;5024395;28;20421;-85
2022/12/17 20:19:30;;;;;;;130.02;53.90;;;-2.40;94.80;;;;;;4977531;28;20421;-85
2022/12/17 20:22:00;;;;;;;137.85;53.47;;;-2.50;94.70;;;;;;4978542;28;20410;-84
2022/12/17 20:24:27;;;;;;;128.43;52.38;;;-2.30;94.80;;;;;;4992223;28;20406;-86
2022/12/17 20:26:53;;;;;;;126.82;54.70;;;-2.40;94.80;;;;;;5025439;28;20452;-85
2022/12/17 20:29:21;;;;;;;126.47;54.55;;;-2.40;94.90;;;;;;4993869;28;20797;-85
2022/12/17 20:31:48;;;;;;;125.65;53.47;;;-2.40;94.90;;;;;;4991595;28;20533;-85
2022/12/17 20:34:16;;;;;;;131.25;53.45;;;-2.40;94.80;;;;;;5025741;28;20977;-85
2022/12/17 20:36:42;;;;;;;130.60;52.20;;;-2.40;94.70;;;;;;4991093;28;20501;-86
2022/12/17 20:39:10;;;;;;;131.68;54.30;;;-2.40;94.70;;;;;;5009257;28;21743;-84
2022/12/17 20:41:38;;;;;;;128.52;53.15;;;-2.50;94.70;;;;;;4976383;28;20506;-86
2022/12/17 20:44:11;;;;;;;127.33;53.17;;;-2.30;94.90;;;;;;4991957;28;20446;-86
2022/12/17 20:46:37;;;;;;;129.00;53.28;;;-2.40;94.90;;;;;;5004841;28;20472;-87
2022/12/17 20:49:04;;;;;;;123.20;53.08;;;-2.40;94.90;;;;;;4993561;28;20406;-86
2022/12/17 20:51:30;;;;;;;124.55;53.10;;;-2.30;94.90;;;;;;4988543;28;20406;-85
2022/12/17 20:53:58;;;;;;;124.03;52.45;;;-2.40;94.80;;;;;;4982653;28;20438;-86
2022/12/17 20:56:27;;;;;;;115.20;52.05;;;-2.40;94.80;;;;;;4983959;28;20411;-86
2022/12/17 20:59:13;;;;;;;115.97;53.10;;;-2.40;94.80;;;;;;4982801;28;20905;-86
2022/12/17 21:01:39;;;;;;;118.80;52.42;;;-2.40;94.80;;;;;;4982832;28;20407;-85
2022/12/17 21:04:06;;;;;;;117.45;52.72;;;-2.40;94.70;;;;;;4982246;28;20399;-84
2022/12/17 21:06:40;;;;;;;114.80;52.50;;;-2.40;94.70;;;;;;4982598;28;20465;-85
2022/12/17 21:09:07;;;;;;;115.55;52.00;;;-2.50;94.60;;;;;;4983789;28;20790;-85
2022/12/17 21:11:34;;;;;;;119.72;51.75;;;-2.50;94.60;;;;;;4982876;28;20813;-84
2022/12/17 21:14:05;;;;;;;116.40;53.42;;;-2.60;94.60;;;;;;4983355;28;20501;-85
2022/12/17 21:16:31;;;;;;;120.70;53.70;;;-2.60;94.70;;;;;;4965774;28;20514;-86
2022/12/17 21:18:59;;;;;;;120.28;54.63;;;-2.60;94.80;;;;;;4983350;28;20860;-86
2022/12/17 21:21:30;;;;;;;115.82;52.78;;;-2.60;94.80;;;;;;4982794;28;20421;-87
2022/12/17 21:23:56;;;;;;;121.45;53.80;;;-2.60;94.80;;;;;;4966238;28;20469;-85
2022/12/17 21:26:24;;;;;;;117.17;53.40;;;-2.60;94.80;;;;;;4967214;28;20422;-86
2022/12/17 21:28:52;;;;;;;121.20;55.33;;;-2.60;94.80;;;;;;4966163;28;20466;-86
2022/12/17 21:31:24;;;;;;;119.75;54.28;;;-2.70;94.80;;;;;;4966909;28;20422;-86
2022/12/17 21:33:51;;;;;;;115.97;52.28;;;-2.70;94.90;;;;;;4982210;28;20782;-86
2022/12/17 21:36:18;;;;;;;118.25;54.72;;;-2.70;95.00;;;;;;4982533;28;21208;-86
2022/12/17 21:38:44;;;;;;;113.53;52.93;;;-2.70;95.00;;;;;;4966269;28;20406;-86
2022/12/17 21:41:13;;;;;;;122.93;54.85;;;-2.70;94.80;;;;;;4982186;28;20403;-86
2022/12/17 21:43:39;;;;;;;123.18;55.63;;;-2.70;94.80;;;;;;4983022;28;20417;-86
2022/12/17 21:46:06;;;;;;;126.70;55.88;;;-2.80;94.90;;;;;;4981565;28;20409;-85
2022/12/17 21:48:32;;;;;;;133.20;56.67;;;-2.70;95.00;;;;;;4983080;28;20616;-87
2022/12/17 21:50:57;;;;;;;129.52;56.47;;;-2.70;95.00;;;;;;4982440;28;20411;-85
2022/12/17 21:53:23;;;;;;;129.85;56.47;;;-2.80;95.00;;;;;;4966598;28;20732;-86
2022/12/17 21:55:53;;;;;;;135.97;58.90;;;-2.70;95.00;;;;;;4966119;28;20410;-86
2022/12/17 21:58:20;;;;;;;130.55;58.35;;;-2.80;95.00;;;;;;4982647;28;20480;-86
2022/12/17 22:00:46;;;;;;;130.90;56.38;;;-2.80;95.10;;;;;;4965998;28;20437;-86
2022/12/17 22:03:12;;;;;;;127.10;56.45;;;-2.80;95.10;;;;;;4982224;28;20426;-86
2022/12/17 22:05:37;;;;;;;128.53;59.23;;;-2.80;95.10;;;;;;4982790;28;20418;-85
2022/12/17 22:08:04;;;;;;;126.00;55.90;;;-2.80;95.10;;;;;;4973590;28;20415;-85
2022/12/17 22:10:30;;;;;;;129.35;57.95;;;-2.80;95.10;;;;;;4970920;28;20984;-85
2022/12/17 22:15:39;;;;;;;135.60;58.70;;;-2.80;95.10;;;;;;4984087;28;20897;-86
2022/12/17 22:18:05;;;;;;;138.88;57.63;;;-2.70;95.20;;;;;;4969877;28;20448;-85
2022/12/17 22:20:31;;;;;;;130.68;58.28;;;-2.70;95.30;;;;;;4969622;28;21141;-86
2022/12/17 22:22:56;;;;;;;131.17;58.13;;;-2.70;95.20;;;;;;4986476;28;20825;-85
2022/12/17 22:25:22;;;;;;;131.10;58.13;;;-2.70;95.30;;;;;;4985256;28;20434;-86
2022/12/17 22:27:47;;;;;;;131.82;57.83;;;-2.60;95.30;;;;;;4970374;28;20924;-85
2022/12/17 22:33:03;;;;;;;125.75;55.55;;;-2.50;95.20;;;;;;5001192;28;20428;-86
2022/12/17 22:35:38;;;;;;;126.00;55.35;;;-2.50;95.10;;;;;;5005475;28;20934;-85
2022/12/17 22:38:05;;;;;;;122.78;56.63;;;-2.50;95.10;;;;;;5021418;28;20419;-86
2022/12/17 22:40:35;;;;;;;133.05;58.58;;;-2.50;95.00;;;;;;5022230;28;20408;-86
2022/12/17 22:45:44;;;;;;;128.18;56.97;;;-2.50;94.90;;;;;;5005380;28;20417;-86
2022/12/17 22:48:11;;;;;;;131.05;56.75;;;-2.50;94.90;;;;;;5021637;28;20424;-86
2022/12/17 22:50:38;;;;;;;133.82;56.92;;;-2.50;94.90;;;;;;5021284;28;20412;-86
2022/12/17 22:53:04;;;;;;;125.23;54.90;;;-2.50;94.90;;;;;;5022042;28;20432;-85
2022/12/17 22:55:31;;;;;;;126.88;55.90;;;-2.50;94.90;;;;;;5004689;28;20425;-85
2022/12/17 22:57:57;;;;;;;134.20;57.03;;;-2.60;94.90;;;;;;5005481;28;20413;-85
2022/12/17 23:00:27;;;;;;;128.35;56.50;;;-2.60;95.00;;;;;;5021388;28;20467;-85
2022/12/17 23:02:54;;;;;;;128.32;56.40;;;-2.50;95.00;;;;;;5021805;28;20780;-86
2022/12/17 23:05:21;;;;;;;130.07;55.85;;;-2.50;95.00;;;;;;5021363;28;20409;-86
2022/12/17 23:07:48;;;;;;;128.48;57.40;;;-2.50;95.00;;;;;;5021002;28;20425;-85
2022/12/17 23:10:14;;;;;;;126.35;55.47;;;-2.60;94.90;;;;;;5005195;28;20478;-86
2022/12/17 23:12:50;;;;;;;121.13;53.65;;;-2.60;95.00;;;;;;5021246;28;20500;-85
2022/12/17 23:15:36;;;;;;;114.30;52.75;;;-2.60;95.00;;;;;;5005202;28;20910;-85
2022/12/17 23:18:03;;;;;;;114.72;52.70;;;-2.60;94.90;;;;;;5020924;28;20428;-85
2022/12/17 23:20:31;;;;;;;113.38;52.22;;;-2.60;94.80;;;;;;5020857;28;20896;-85
2022/12/17 23:22:57;;;;;;;113.13;51.67;;;-2.60;94.80;;;;;;5021633;28;20425;-84
2022/12/17 23:25:24;;;;;;;111.57;51.42;;;-2.60;94.80;;;;;;5004347;28;20488;-85
2022/12/17 23:27:50;;;;;;;121.38;54.60;;;-2.60;94.90;;;;;;5020754;28;20412;-86
2022/12/17 23:30:16;;;;;;;126.05;54.83;;;-2.60;94.90;;;;;;5021013;28;20535;-86
2022/12/17 23:32:42;;;;;;;115.73;54.27;;;-2.60;94.90;;;;;;5021171;28;20550;-86
2022/12/17 23:35:09;;;;;;;113.07;52.50;;;-2.60;94.90;;;;;;5020810;28;20416;-85
2022/12/17 23:37:34;;;;;;;113.47;52.63;;;-2.60;94.90;;;;;;5004406;28;20456;-86
2022/12/17 23:40:00;;;;;;;117.35;52.03;;;-2.60;94.90;;;;;;5021219;28;20444;-85
2022/12/17 23:42:26;;;;;;;114.65;52.25;;;-2.60;94.80;;;;;;5020281;28;20421;-86
2022/12/17 23:44:51;;;;;;;114.03;53.42;;;-2.60;94.90;;;;;;5005023;28;20436;-85
2022/12/17 23:47:17;;;;;;;113.63;51.77;;;-2.60;94.80;;;;;;5004054;28;20449;-85
2022/12/17 23:49:43;;;;;;;114.40;52.07;;;-2.60;94.80;;;;;;5021403;28;21180;-85
2022/12/17 23:52:09;;;;;;;112.40;52.83;;;-2.60;94.80;;;;;;5020189;28;20413;-86
2022/12/17 23:54:34;;;;;;;112.18;53.20;;;-2.60;94.80;;;;;;5004034;28;20433;-86
2022/12/17 23:57:00;;;;;;;117.77;53.27;;;-2.60;94.80;;;;;;5003697;28;20413;-85
2022/12/17 23:59:26;;;;;;;114.47;52.75;;;-2.60;94.90;;;;;;5004236;28;20412;-86
